Saga Sapphire — 9HOF8 — position and weather

sailwx.info

Track history (hours):
 
Tides and Currents Weather Stations Pressure Air Temp Water Temp Dewpoint Dewpoint Depression Visibility Wind Speed Wind Dir Waves Ship Positions

Saga Sapphire

Last reported at 2019-May-19 20:00 UTC. Time now 2019-May-20 02:24 UTC.
Position N 48°54' W 051°24'.

Length 200 m; draft 8.5 m.

Type: Passenger vessel. MMSI: 256208000.

Wind from 360 at 47 knots

Barometer 997.2 mb
Air temperature 3.0 ° C
Visibility: greater than 1.1 NM
Dewpoint 1.7 ° C
Water temperature 1.0 ° C

Date/timePositionNaut miles runAvg speedWind from/ knotsBaromVisibWave heightAir tempDewpointWater temp
2019-May-19 20:00N 48°54' W 051°24'30411.7 360 / 47997.2 1.1 3.0 1.7 1.0
2019-May-18 18:00N 48°54' W 043°42'67516.1 330 / 241011.7 5.4 6.5 2.4 5.0
2019-May-17 00:00N 47°24' W 027°00'26513.9 230 / 181023.910.8 12.0 8.1
2019-May-16 05:00N 46°42' W 020°36'9515.8 290 / 191021.9 2.2 12.5 9.112.5
2019-May-15 23:00N 47°12' W 018°24'6415.9 270 / 181021.210.8 14.0 8.414.0
2019-May-15 19:00N 47°30' W 016°54'21915.6 130 / 181019.610.8 14.5 9.914.0
2019-May-15 05:00N 48°36' W 011°42'15115.8 130 / 251018.610.8 13.010.114.0
2019-May-14 19:26N 49°27' W 008°05'1716.5
2019-May-14 18:26N 49°32' W 007°41'3916.1
2019-May-14 16:00N 49°42' W 006°42'3616.2 070 / 141027.710.8 17.211.313.0
2019-May-14 13:44N 49°45' W 005°46'515.6
2019-May-14 13:25N 49°46' W 005°38'715.7
2019-May-14 12:58N 49°47' W 005°27'815.7
2019-May-14 12:29N 49°48' W 005°16'1915.9
2019-May-14 11:18N 49°50' W 004°47'516.2
2019-May-14 11:00N 49°51' W 004°39'816.4
2019-May-14 10:30N 49°52' W 004°27'816.7
2019-May-14 10:00N 49°54' W 004°14'917.0
2019-May-14 09:30N 49°55' W 004°01'917.3
2019-May-14 09:00N 49°55' W 003°48'917.5
2019-May-14 08:30N 49°56' W 003°34'917.6
2019-May-14 08:00N 49°58' W 003°20'917.4
2019-May-14 07:30N 49°59' W 003°07'816.8
2019-May-14 07:00N 49°60' W 002°54'816.6
2019-May-14 06:30N 50°02' W 002°42'816.1
2019-May-14 06:00N 50°04' W 002°30'6358.4
2019-May-14 06:00N 50°00' W 002°24'715.3 090 / 161033.5 5.4 11.210.012.6
2019-May-14 05:30N 50°06' W 002°18'714.9
2019-May-14 05:00N 50°09' W 002°07'714.4
2019-May-14 04:30N 50°10' W 001°56'714.0
2019-May-14 04:00N 50°12' W 001°45'21209.5
2019-May-14 04:00N 50°12' W 001°42'610.6 080 / 131034.3 5.4 10.2 9.012.5
2019-May-14 03:25N 50°14' W 001°33'614.0
2019-May-14 02:59N 50°16' W 001°24'714.2
2019-May-14 02:30N 50°18' W 001°14'714.7
2019-May-14 02:00N 50°20' W 001°03'815.5
2019-May-14 01:30N 50°22' W 000°51'816.2
2019-May-14 01:00N 50°25' W 000°39'816.6
2019-May-14 00:30N 50°27' W 000°26'816.8
2019-May-14 00:00N 50°28' W 000°13'1417.0
2019-May-13 23:09N 50°31' E 000°09'317.4
2019-May-13 23:00N 50°32' E 000°13'917.4
2019-May-13 22:29N 50°35' E 000°26'817.0
2019-May-13 22:00N 50°39' E 000°38'816.8
2019-May-13 21:30N 50°44' E 000°48'816.3
2019-May-13 21:00N 50°49' E 000°58'815.7
2019-May-13 20:30N 50°54' E 001°07'714.3
2019-May-13 20:00N 50°59' E 001°15'612.1
2019-May-13 19:30N 51°04' E 001°20'3 4.5
2019-May-13 18:56N 51°07' E 001°19'0 0.0
2019-May-13 18:28N 51°07' E 001°19'0 0.0
2019-May-13 17:57N 51°07' E 001°19'0 0.0
2019-May-13 17:06N 51°07' E 001°19'0 0.0
2019-May-13 16:47N 51°07' E 001°19'0 0.0
2019-May-13 16:16N 51°07' E 001°19'0 0.0
2019-May-13 15:15N 51°07' E 001°19'0 0.0
2019-May-13 10:36N 51°07' E 001°19'0 0.0
2019-May-13 05:56N 51°07' E 001°19'2 5.1
2019-May-13 05:28N 51°08' E 001°23'3 7.1
2019-May-13 05:00N 51°08' E 001°28'510.3
2019-May-13 04:30N 51°09' E 001°36'611.7
2019-May-13 04:00N 51°12' E 001°43'510.4
2019-May-13 03:30N 51°17' E 001°48'510.9
2019-May-13 03:01N 51°22' E 001°52'611.1
2019-May-13 02:31N 51°26' E 001°57'611.5
2019-May-13 02:00N 51°30' E 002°03'612.9
2019-May-13 01:30N 51°35' E 002°10'1 2.9
2019-May-13 01:00N 51°36' E 002°12'619828.5 1040.110.8 10.0 3.6
2019-May-13 00:59N 51°40' E 002°17'613.1
2019-May-13 00:30N 51°45' E 002°24'712.7
2019-May-13 00:00N 51°50' E 002°31'712.3
2019-May-12 23:26N 51°55' E 002°38'811.9
2019-May-12 22:45N 52°02' E 002°46'511.6
2019-May-12 22:20N 52°06' E 002°51'411.5
2019-May-12 21:58N 52°09' E 002°55'1011.2
2019-May-12 21:05N 52°17' E 003°05'211.2
2019-May-12 20:53N 52°19' E 003°07'611.1
2019-May-12 20:20N 52°24' E 003°12'511.2
2019-May-12 19:55N 52°28' E 003°17'1210.8
2019-May-12 18:46N 52°38' E 003°29'3811.1
2019-May-12 15:18N 53°05' E 004°14'411.2
2019-May-12 14:58N 53°08' E 004°18'134 7.5
2019-May-11 21:07N 54°02' E 007°45'811.2
2019-May-11 20:26N 54°01' E 007°58'711.5
2019-May-11 19:51N 54°00' E 008°09'410.7
2019-May-11 19:29N 54°00' E 008°16'713.0
2019-May-11 18:59N 53°59' E 008°27'814.9
2019-May-11 18:28N 53°56' E 008°39'714.0
2019-May-11 18:00N 53°51' E 008°46'612.6
2019-May-11 17:30N 53°51' E 008°57'611.4
2019-May-11 17:00N 53°53' E 009°06'2 3.4
2019-May-11 16:25N 53°54' E 009°09'0 0.0
2019-May-11 16:00N 53°54' E 009°09'1 1.8
2019-May-11 15:30N 53°54' E 009°10'3 6.2
2019-May-11 15:00N 53°56' E 009°13'4 6.6
2019-May-11 14:28N 53°59' E 009°17'3 6.9
2019-May-11 14:00N 54°02' E 009°18'4 7.3
2019-May-11 13:24N 54°07' E 009°20'3 6.3
2019-May-11 13:01N 54°09' E 009°21'3 6.8
2019-May-11 12:31N 54°10' E 009°27'3 6.7
2019-May-11 12:00N 54°12' E 009°32'3 5.4
2019-May-11 11:30N 54°13' E 009°36'3 5.2
2019-May-11 11:01N 54°16' E 009°37'3 6.0
2019-May-11 10:30N 54°18' E 009°41'3 6.4
2019-May-11 10:00N 54°20' E 009°44'3 6.6
2019-May-11 09:31N 54°22' E 009°49'3 6.6
2019-May-11 09:01N 54°21' E 009°55'3 6.2
2019-May-11 08:30N 54°21' E 009°60'2 4.7
2019-May-11 08:00N 54°22' E 010°04'1 2.3
2019-May-11 07:31N 54°22' E 010°06'2 3.4
2019-May-11 07:00N 54°22' E 010°08'0 0.0
2019-May-11 06:30N 54°22' E 010°08'1 2.3
2019-May-11 06:00N 54°21' E 010°10'1 2.8
2019-May-11 05:30N 54°20' E 010°09'0 0.8
2019-May-11 04:59N 54°20' E 010°09'0 0.0
2019-May-11 04:20N 54°20' E 010°09'0 0.0
2019-May-11 03:50N 54°20' E 010°09'0 0.0
2019-May-11 03:20N 54°20' E 010°09'0 0.0
2019-May-11 02:53N 54°20' E 010°09'0 0.0
2019-May-11 02:23N 54°20' E 010°09'0 0.0
2019-May-11 01:53N 54°20' E 010°09'0 0.0
2019-May-11 01:23N 54°20' E 010°09'0 0.0
2019-May-11 00:56N 54°20' E 010°09'0 0.0
2019-May-11 00:26N 54°20' E 010°09'0 0.0
2019-May-10 23:56N 54°20' E 010°09'0 0.0
2019-May-10 23:26N 54°20' E 010°09'0 0.0
2019-May-10 22:56N 54°20' E 010°09'0 0.0
2019-May-10 22:26N 54°20' E 010°09'0 0.0
2019-May-10 21:59N 54°20' E 010°09'0 0.0
2019-May-10 21:29N 54°20' E 010°09'0 0.0
2019-May-10 20:59N 54°20' E 010°09'0 0.0
2019-May-10 20:29N 54°20' E 010°09'0 0.0
2019-May-10 19:59N 54°20' E 010°09'0 0.0
2019-May-10 19:29N 54°20' E 010°09'0 0.0
2019-May-10 18:59N 54°20' E 010°09'0 0.0
2019-May-10 18:29N 54°20' E 010°09'0 0.0
2019-May-10 17:59N 54°20' E 010°09'0 0.0
2019-May-10 17:29N 54°20' E 010°09'0 0.0
2019-May-10 16:59N 54°20' E 010°09'0 0.0
2019-May-10 16:29N 54°20' E 010°09'0 0.0
2019-May-10 15:59N 54°20' E 010°09'0 0.0
2019-May-10 15:29N 54°20' E 010°09'0 0.0
2019-May-10 14:50N 54°20' E 010°09'0 0.0
2019-May-10 14:20N 54°20' E 010°09'0 0.0
2019-May-10 13:50N 54°20' E 010°09'0 0.0
2019-May-10 13:23N 54°20' E 010°09'0 0.0
2019-May-10 12:53N 54°20' E 010°09'0 0.0
2019-May-10 12:30N 54°20' E 010°09'0 0.0
2019-May-10 11:55N 54°20' E 010°09'0 0.0
2019-May-10 11:25N 54°20' E 010°09'0 0.0
2019-May-10 10:55N 54°20' E 010°09'0 0.0
2019-May-10 10:25N 54°20' E 010°09'0 0.0
2019-May-10 09:55N 54°20' E 010°09'0 0.0
2019-May-10 09:28N 54°20' E 010°09'0 0.0
2019-May-10 08:58N 54°20' E 010°09'0 0.0
2019-May-10 08:28N 54°20' E 010°09'0 0.0
2019-May-10 07:58N 54°20' E 010°09'0 0.0
2019-May-10 07:28N 54°20' E 010°09'0 0.0
2019-May-10 06:58N 54°20' E 010°09'0 0.0
2019-May-10 06:28N 54°20' E 010°09'0 0.0
2019-May-10 05:59N 54°20' E 010°09'1 2.8
2019-May-10 05:30N 54°21' E 010°10'4 8.6
2019-May-10 05:00N 54°25' E 010°12'611.8
2019-May-10 04:30N 54°30' E 010°18'4 9.0
2019-May-10 04:00N 54°32' E 010°24'612.2
2019-May-10 03:30N 54°34' E 010°34'612.2
2019-May-10 03:00N 54°35' E 010°44'1211.9
2019-May-10 02:00N 54°36' E 011°05'613.0
2019-May-10 01:30N 54°35' E 011°16'713.4
2019-May-10 01:00N 54°32' E 011°26'713.8
2019-May-10 00:31N 54°29' E 011°37'714.9
2019-May-10 00:01N 54°26' E 011°49'714.8
2019-May-09 23:31N 54°26' E 012°02'612.9
2019-May-09 23:01N 54°28' E 012°12'714.2
2019-May-09 22:31N 54°35' E 012°16'813.5
2019-May-09 21:55N 54°41' E 012°25'613.8
2019-May-09 21:28N 54°44' E 012°35'613.1
2019-May-09 21:00N 54°47' E 012°43'  
Track history (hours):
 
Tides and Currents Weather Stations Pressure Air Temp Water Temp Dewpoint Dewpoint Depression Visibility Wind Speed Wind Dir Waves Ship Positions

Saga Sapphire

Last reported at 2019-May-19 20:00 UTC. Time now 2019-May-20 02:24 UTC.
Position N 48°54' W 051°24'.

Length 200 m; draft 8.5 m.

Type: Passenger vessel. MMSI: 256208000.

Wind from 360 at 47 knots

Barometer 997.2 mb
Air temperature 3.0 ° C
Visibility: greater than 1.1 NM
Dewpoint 1.7 ° C
Water temperature 1.0 ° C

Date/timePositionNaut miles runAvg speedWind from/ knotsBaromVisibWave heightAir tempDewpointWater temp
2019-May-19 20:00N 48°54' W 051°24'30411.7 360 / 47997.2 1.1 3.0 1.7 1.0
2019-May-18 18:00N 48°54' W 043°42'67516.1 330 / 241011.7 5.4 6.5 2.4 5.0
2019-May-17 00:00N 47°24' W 027°00'26513.9 230 / 181023.910.8 12.0 8.1
2019-May-16 05:00N 46°42' W 020°36'9515.8 290 / 191021.9 2.2 12.5 9.112.5
2019-May-15 23:00N 47°12' W 018°24'6415.9 270 / 181021.210.8 14.0 8.414.0
2019-May-15 19:00N 47°30' W 016°54'21915.6 130 / 181019.610.8 14.5 9.914.0
2019-May-15 05:00N 48°36' W 011°42'15115.8 130 / 251018.610.8 13.010.114.0
2019-May-14 19:26N 49°27' W 008°05'1716.5
2019-May-14 18:26N 49°32' W 007°41'3916.1
2019-May-14 16:00N 49°42' W 006°42'3616.2 070 / 141027.710.8 17.211.313.0
2019-May-14 13:44N 49°45' W 005°46'515.6
2019-May-14 13:25N 49°46' W 005°38'715.7
2019-May-14 12:58N 49°47' W 005°27'815.7
2019-May-14 12:29N 49°48' W 005°16'1915.9
2019-May-14 11:18N 49°50' W 004°47'516.2
2019-May-14 11:00N 49°51' W 004°39'816.4
2019-May-14 10:30N 49°52' W 004°27'816.7
2019-May-14 10:00N 49°54' W 004°14'917.0
2019-May-14 09:30N 49°55' W 004°01'917.3
2019-May-14 09:00N 49°55' W 003°48'917.5
2019-May-14 08:30N 49°56' W 003°34'917.6
2019-May-14 08:00N 49°58' W 003°20'917.4
2019-May-14 07:30N 49°59' W 003°07'816.8
2019-May-14 07:00N 49°60' W 002°54'816.6
2019-May-14 06:30N 50°02' W 002°42'816.1
2019-May-14 06:00N 50°04' W 002°30'6358.4
2019-May-14 06:00N 50°00' W 002°24'715.3 090 / 161033.5 5.4 11.210.012.6
2019-May-14 05:30N 50°06' W 002°18'714.9
2019-May-14 05:00N 50°09' W 002°07'714.4
2019-May-14 04:30N 50°10' W 001°56'714.0
2019-May-14 04:00N 50°12' W 001°45'21209.5
2019-May-14 04:00N 50°12' W 001°42'610.6 080 / 131034.3 5.4 10.2 9.012.5
2019-May-14 03:25N 50°14' W 001°33'614.0
2019-May-14 02:59N 50°16' W 001°24'714.2
2019-May-14 02:30N 50°18' W 001°14'714.7
2019-May-14 02:00N 50°20' W 001°03'815.5
2019-May-14 01:30N 50°22' W 000°51'816.2
2019-May-14 01:00N 50°25' W 000°39'816.6
2019-May-14 00:30N 50°27' W 000°26'816.8
2019-May-14 00:00N 50°28' W 000°13'1417.0
2019-May-13 23:09N 50°31' E 000°09'317.4
2019-May-13 23:00N 50°32' E 000°13'917.4
2019-May-13 22:29N 50°35' E 000°26'817.0
2019-May-13 22:00N 50°39' E 000°38'816.8
2019-May-13 21:30N 50°44' E 000°48'816.3
2019-May-13 21:00N 50°49' E 000°58'815.7
2019-May-13 20:30N 50°54' E 001°07'714.3
2019-May-13 20:00N 50°59' E 001°15'612.1
2019-May-13 19:30N 51°04' E 001°20'3 4.5
2019-May-13 18:56N 51°07' E 001°19'0 0.0
2019-May-13 18:28N 51°07' E 001°19'0 0.0
2019-May-13 17:57N 51°07' E 001°19'0 0.0
2019-May-13 17:06N 51°07' E 001°19'0 0.0
2019-May-13 16:47N 51°07' E 001°19'0 0.0
2019-May-13 16:16N 51°07' E 001°19'0 0.0
2019-May-13 15:15N 51°07' E 001°19'0 0.0
2019-May-13 10:36N 51°07' E 001°19'0 0.0
2019-May-13 05:56N 51°07' E 001°19'2 5.1
2019-May-13 05:28N 51°08' E 001°23'3 7.1
2019-May-13 05:00N 51°08' E 001°28'510.3
2019-May-13 04:30N 51°09' E 001°36'611.7
2019-May-13 04:00N 51°12' E 001°43'510.4
2019-May-13 03:30N 51°17' E 001°48'510.9
2019-May-13 03:01N 51°22' E 001°52'611.1
2019-May-13 02:31N 51°26' E 001°57'611.5
2019-May-13 02:00N 51°30' E 002°03'612.9
2019-May-13 01:30N 51°35' E 002°10'1 2.9
2019-May-13 01:00N 51°36' E 002°12'619828.5 1040.110.8 10.0 3.6
2019-May-13 00:59N 51°40' E 002°17'613.1
2019-May-13 00:30N 51°45' E 002°24'712.7
2019-May-13 00:00N 51°50' E 002°31'712.3
2019-May-12 23:26N 51°55' E 002°38'811.9
2019-May-12 22:45N 52°02' E 002°46'511.6
2019-May-12 22:20N 52°06' E 002°51'411.5
2019-May-12 21:58N 52°09' E 002°55'1011.2
2019-May-12 21:05N 52°17' E 003°05'211.2
2019-May-12 20:53N 52°19' E 003°07'611.1
2019-May-12 20:20N 52°24' E 003°12'511.2
2019-May-12 19:55N 52°28' E 003°17'1210.8
2019-May-12 18:46N 52°38' E 003°29'3811.1
2019-May-12 15:18N 53°05' E 004°14'411.2
2019-May-12 14:58N 53°08' E 004°18'134 7.5
2019-May-11 21:07N 54°02' E 007°45'811.2
2019-May-11 20:26N 54°01' E 007°58'711.5
2019-May-11 19:51N 54°00' E 008°09'410.7
2019-May-11 19:29N 54°00' E 008°16'713.0
2019-May-11 18:59N 53°59' E 008°27'814.9
2019-May-11 18:28N 53°56' E 008°39'714.0
2019-May-11 18:00N 53°51' E 008°46'612.6
2019-May-11 17:30N 53°51' E 008°57'611.4
2019-May-11 17:00N 53°53' E 009°06'2 3.4
2019-May-11 16:25N 53°54' E 009°09'0 0.0
2019-May-11 16:00N 53°54' E 009°09'1 1.8
2019-May-11 15:30N 53°54' E 009°10'3 6.2
2019-May-11 15:00N 53°56' E 009°13'4 6.6
2019-May-11 14:28N 53°59' E 009°17'3 6.9
2019-May-11 14:00N 54°02' E 009°18'4 7.3
2019-May-11 13:24N 54°07' E 009°20'3 6.3
2019-May-11 13:01N 54°09' E 009°21'3 6.8
2019-May-11 12:31N 54°10' E 009°27'3 6.7
2019-May-11 12:00N 54°12' E 009°32'3 5.4
2019-May-11 11:30N 54°13' E 009°36'3 5.2
2019-May-11 11:01N 54°16' E 009°37'3 6.0
2019-May-11 10:30N 54°18' E 009°41'3 6.4
2019-May-11 10:00N 54°20' E 009°44'3 6.6
2019-May-11 09:31N 54°22' E 009°49'3 6.6
2019-May-11 09:01N 54°21' E 009°55'3 6.2
2019-May-11 08:30N 54°21' E 009°60'2 4.7
2019-May-11 08:00N 54°22' E 010°04'1 2.3
2019-May-11 07:31N 54°22' E 010°06'2 3.4
2019-May-11 07:00N 54°22' E 010°08'0 0.0
2019-May-11 06:30N 54°22' E 010°08'1 2.3
2019-May-11 06:00N 54°21' E 010°10'1 2.8
2019-May-11 05:30N 54°20' E 010°09'0 0.8
2019-May-11 04:59N 54°20' E 010°09'0 0.0
2019-May-11 04:20N 54°20' E 010°09'0 0.0
2019-May-11 03:50N 54°20' E 010°09'0 0.0
2019-May-11 03:20N 54°20' E 010°09'0 0.0
2019-May-11 02:53N 54°20' E 010°09'0 0.0
2019-May-11 02:23N 54°20' E 010°09'0 0.0
2019-May-11 01:53N 54°20' E 010°09'0 0.0
2019-May-11 01:23N 54°20' E 010°09'0 0.0
2019-May-11 00:56N 54°20' E 010°09'0 0.0
2019-May-11 00:26N 54°20' E 010°09'0 0.0
2019-May-10 23:56N 54°20' E 010°09'0 0.0
2019-May-10 23:26N 54°20' E 010°09'0 0.0
2019-May-10 22:56N 54°20' E 010°09'0 0.0
2019-May-10 22:26N 54°20' E 010°09'0 0.0
2019-May-10 21:59N 54°20' E 010°09'0 0.0
2019-May-10 21:29N 54°20' E 010°09'0 0.0
2019-May-10 20:59N 54°20' E 010°09'0 0.0
2019-May-10 20:29N 54°20' E 010°09'0 0.0
2019-May-10 19:59N 54°20' E 010°09'0 0.0
2019-May-10 19:29N 54°20' E 010°09'0 0.0
2019-May-10 18:59N 54°20' E 010°09'0 0.0
2019-May-10 18:29N 54°20' E 010°09'0 0.0
2019-May-10 17:59N 54°20' E 010°09'0 0.0
2019-May-10 17:29N 54°20' E 010°09'0 0.0
2019-May-10 16:59N 54°20' E 010°09'0 0.0
2019-May-10 16:29N 54°20' E 010°09'0 0.0
2019-May-10 15:59N 54°20' E 010°09'0 0.0
2019-May-10 15:29N 54°20' E 010°09'0 0.0
2019-May-10 14:50N 54°20' E 010°09'0 0.0
2019-May-10 14:20N 54°20' E 010°09'0 0.0
2019-May-10 13:50N 54°20' E 010°09'0 0.0
2019-May-10 13:23N 54°20' E 010°09'0 0.0
2019-May-10 12:53N 54°20' E 010°09'0 0.0
2019-May-10 12:30N 54°20' E 010°09'0 0.0
2019-May-10 11:55N 54°20' E 010°09'0 0.0
2019-May-10 11:25N 54°20' E 010°09'0 0.0
2019-May-10 10:55N 54°20' E 010°09'0 0.0
2019-May-10 10:25N 54°20' E 010°09'0 0.0
2019-May-10 09:55N 54°20' E 010°09'0 0.0
2019-May-10 09:28N 54°20' E 010°09'0 0.0
2019-May-10 08:58N 54°20' E 010°09'0 0.0
2019-May-10 08:28N 54°20' E 010°09'0 0.0
2019-May-10 07:58N 54°20' E 010°09'0 0.0
2019-May-10 07:28N 54°20' E 010°09'0 0.0
2019-May-10 06:58N 54°20' E 010°09'0 0.0
2019-May-10 06:28N 54°20' E 010°09'0 0.0
2019-May-10 05:59N 54°20' E 010°09'1 2.8
2019-May-10 05:30N 54°21' E 010°10'4 8.6
2019-May-10 05:00N 54°25' E 010°12'611.8
2019-May-10 04:30N 54°30' E 010°18'4 9.0
2019-May-10 04:00N 54°32' E 010°24'612.2
2019-May-10 03:30N 54°34' E 010°34'612.2
2019-May-10 03:00N 54°35' E 010°44'1211.9
2019-May-10 02:00N 54°36' E 011°05'613.0
2019-May-10 01:30N 54°35' E 011°16'713.4
2019-May-10 01:00N 54°32' E 011°26'713.8
2019-May-10 00:31N 54°29' E 011°37'714.9
2019-May-10 00:01N 54°26' E 011°49'714.8
2019-May-09 23:31N 54°26' E 012°02'612.9
2019-May-09 23:01N 54°28' E 012°12'714.2
2019-May-09 22:31N 54°35' E 012°16'813.5
2019-May-09 21:55N 54°41' E 012°25'613.8
2019-May-09 21:28N 54°44' E 012°35'613.1
2019-May-09 21:00N 54°47' E 012°43'  

Dump ship's entire track history